createdAt,value
2023-03-23T15:59:13.912Z,15.40
2023-03-23T16:01:43.625Z,15.20
2023-03-23T16:04:19.832Z,15.10
2023-03-23T16:06:49.789Z,15.10
2023-03-23T16:09:19.342Z,15.10
2023-03-23T16:11:47.457Z,15.00
2023-03-23T16:14:15.485Z,14.70
2023-03-23T16:16:48.750Z,14.80
2023-03-23T16:19:20.268Z,14.90
2023-03-23T16:21:49.453Z,14.90
2023-03-23T16:24:17.423Z,15.00
2023-03-23T16:26:45.181Z,14.90
2023-03-23T16:29:28.233Z,14.80
2023-03-23T16:31:56.730Z,14.80
2023-03-23T16:34:24.782Z,14.70
2023-03-23T16:36:53.861Z,14.70
2023-03-23T16:39:21.718Z,15.00
2023-03-23T16:41:49.522Z,15.20
2023-03-23T16:44:17.265Z,15.50
2023-03-23T16:46:45.128Z,15.30
2023-03-23T16:49:13.287Z,15.20
2023-03-23T16:51:42.465Z,15.40
2023-03-23T16:54:12.173Z,15.40
2023-03-23T16:56:40.143Z,15.60
2023-03-23T16:59:08.231Z,15.50
2023-03-23T17:01:36.048Z,15.40
2023-03-23T17:04:03.861Z,15.50
2023-03-23T17:06:31.831Z,15.60
2023-03-23T17:08:59.614Z,15.50
2023-03-23T17:11:28.715Z,15.60
2023-03-23T17:13:56.484Z,15.60
2023-03-23T17:16:24.289Z,15.70
2023-03-23T17:18:52.175Z,15.80
2023-03-23T17:21:20.642Z,15.90
2023-03-23T17:23:48.429Z,16.00
2023-03-23T17:26:16.186Z,16.00
2023-03-23T17:28:45.578Z,16.00
2023-03-23T17:31:13.427Z,15.80
2023-03-23T17:33:41.189Z,15.80
2023-03-23T17:36:09.566Z,15.70
2023-03-23T17:38:37.608Z,15.60
2023-03-23T17:41:08.033Z,15.60
2023-03-23T17:43:36.174Z,15.70
2023-03-23T17:46:05.650Z,15.70
2023-03-23T17:48:33.675Z,15.50
2023-03-23T17:51:02.343Z,15.30
2023-03-23T17:53:31.384Z,15.40
2023-03-23T17:56:00.025Z,15.60
2023-03-23T17:58:28.081Z,15.60
2023-03-23T18:00:56.808Z,15.70
2023-03-23T18:03:26.582Z,15.80
2023-03-23T18:05:59.648Z,15.70
2023-03-23T18:08:27.916Z,15.80
2023-03-23T18:10:57.180Z,15.70
2023-03-23T18:13:26.072Z,15.80
2023-03-23T18:15:55.139Z,15.90
2023-03-23T18:18:25.019Z,15.60
2023-03-23T18:20:56.409Z,15.60
2023-03-23T18:23:24.408Z,15.50
2023-03-23T18:25:53.747Z,15.60
2023-03-23T18:28:22.007Z,15.70
2023-03-23T18:30:50.043Z,15.70
2023-03-23T18:33:20.610Z,15.80
2023-03-23T18:35:50.221Z,15.80
2023-03-23T18:38:18.151Z,15.80
2023-03-23T18:40:47.108Z,15.70
2023-03-23T18:43:15.195Z,15.60
2023-03-23T18:45:43.308Z,15.60
2023-03-23T18:48:11.293Z,15.50
2023-03-23T18:50:39.045Z,15.30
2023-03-23T18:53:08.186Z,15.10
2023-03-23T18:55:36.207Z,15.10
2023-03-23T18:58:04.353Z,15.10
2023-03-23T19:00:33.734Z,15.10
2023-03-23T19:03:01.929Z,15.10
2023-03-23T19:05:29.746Z,15.10
2023-03-23T19:07:58.038Z,15.00
2023-03-23T19:10:27.902Z,15.10
2023-03-23T19:12:55.959Z,15.00
2023-03-23T19:15:24.710Z,14.80
2023-03-23T19:17:55.873Z,14.70
2023-03-23T19:21:00.445Z,14.50
2023-03-23T19:23:12.455Z,14.40
2023-03-23T19:25:43.002Z,14.60
2023-03-23T19:29:03.318Z,14.50
2023-03-23T19:31:02.628Z,14.60
2023-03-23T19:33:30.416Z,14.80
2023-03-23T19:36:09.104Z,14.80
2023-03-23T19:38:40.707Z,14.80
2023-03-23T19:41:10.085Z,14.80
2023-03-23T19:43:37.980Z,14.70
2023-03-23T19:46:06.190Z,14.70
2023-03-23T19:51:02.431Z,14.80
2023-03-23T19:53:30.275Z,14.80
2023-03-23T19:55:58.084Z,14.90
2023-03-23T19:58:28.509Z,15.00
2023-03-23T20:00:56.714Z,15.00
2023-03-23T20:03:25.948Z,15.00
2023-03-23T20:06:01.271Z,15.20
2023-03-23T20:08:29.230Z,15.20
2023-03-23T20:11:03.789Z,15.20
2023-03-23T20:13:33.167Z,15.30
2023-03-23T20:16:01.624Z,15.30
2023-03-23T20:18:30.306Z,15.40
2023-03-23T20:21:03.804Z,15.30
2023-03-23T20:23:32.156Z,15.30
2023-03-23T20:26:00.758Z,15.30
2023-03-23T20:28:28.923Z,15.10
2023-03-23T20:31:17.079Z,15.20
2023-03-23T20:34:00.371Z,15.40
2023-03-23T20:36:31.157Z,15.40
2023-03-23T20:38:58.952Z,15.60
2023-03-23T20:41:26.755Z,15.70
2023-03-23T20:43:54.531Z,15.70
2023-03-23T20:46:24.061Z,15.40
2023-03-23T20:48:51.920Z,15.40
2023-03-23T20:51:20.968Z,15.50
2023-03-23T20:53:50.083Z,15.40
2023-03-23T20:56:17.868Z,15.50
2023-03-23T20:58:45.866Z,15.50
2023-03-23T21:01:13.775Z,15.50
2023-03-23T21:03:43.792Z,15.40
2023-03-23T21:06:11.988Z,15.30
2023-03-23T21:08:41.502Z,15.30
2023-03-23T21:11:14.575Z,15.30
2023-03-23T21:13:42.493Z,15.40
2023-03-23T21:16:10.301Z,15.40
2023-03-23T21:18:38.567Z,15.30
2023-03-23T21:21:10.230Z,15.40
2023-03-23T21:23:38.281Z,15.50
2023-03-23T21:26:08.009Z,15.50
2023-03-23T21:28:35.872Z,15.50
2023-03-23T21:31:05.792Z,15.40
2023-03-23T21:33:33.778Z,15.40
2023-03-23T21:36:02.401Z,15.50
2023-03-23T21:38:32.271Z,15.60
2023-03-23T21:41:01.490Z,15.40
2023-03-23T21:43:29.205Z,15.40
2023-03-23T21:46:02.790Z,15.40
2023-03-23T21:48:32.829Z,15.40
2023-03-23T21:51:06.596Z,15.40
2023-03-23T21:53:36.734Z,15.30
2023-03-23T21:56:06.533Z,15.20
2023-03-23T21:58:34.974Z,15.20
2023-03-23T22:01:04.585Z,15.20
2023-03-23T22:03:33.243Z,15.30
2023-03-23T22:06:09.059Z,15.20
2023-03-23T22:08:39.717Z,15.20
2023-03-23T22:11:09.744Z,15.20
2023-03-23T22:13:39.181Z,15.20
2023-03-23T22:16:09.905Z,15.10
2023-03-23T22:18:38.911Z,15.10
2023-03-23T22:21:07.445Z,15.20
2023-03-23T22:23:35.598Z,15.30
2023-03-23T22:26:05.351Z,15.30
2023-03-23T22:28:36.959Z,15.10
2023-03-23T22:31:07.805Z,15.00
2023-03-23T22:33:37.010Z,15.00
2023-03-23T22:36:06.752Z,14.90
2023-03-23T22:38:35.572Z,15.00
2023-03-23T22:41:07.203Z,15.20
2023-03-23T22:43:35.435Z,15.10
2023-03-23T22:46:03.895Z,15.00
2023-03-23T22:48:31.844Z,15.00
2023-03-23T22:50:59.640Z,15.10
2023-03-23T22:53:27.405Z,15.10
2023-03-23T22:55:57.025Z,15.10
2023-03-23T22:58:27.261Z,15.10
2023-03-23T23:00:58.406Z,14.90
2023-03-23T23:03:27.230Z,14.90
2023-03-23T23:05:56.744Z,15.10
2023-03-23T23:08:25.620Z,15.10
2023-03-23T23:10:56.808Z,15.10
2023-03-23T23:13:27.125Z,15.00
2023-03-23T23:15:58.129Z,14.90
2023-03-23T23:18:27.319Z,15.00
2023-03-23T23:20:57.513Z,14.90
2023-03-23T23:23:26.806Z,14.90
2023-03-23T23:25:55.172Z,14.90
2023-03-23T23:28:23.685Z,15.00
2023-03-23T23:30:53.024Z,15.00
2023-03-23T23:33:22.739Z,15.00
2023-03-23T23:35:51.896Z,15.20
2023-03-23T23:38:19.747Z,15.10
2023-03-23T23:40:48.184Z,15.10
2023-03-23T23:43:17.455Z,15.20
2023-03-23T23:45:45.394Z,15.30
2023-03-23T23:48:14.461Z,15.20
2023-03-23T23:50:42.342Z,15.10
2023-03-23T23:53:10.846Z,15.10
2023-03-23T23:55:40.551Z,15.20
2023-03-23T23:58:08.408Z,15.30
